createdAt,value
2023-01-02T00:00:22.003Z,1.39
2023-01-02T00:02:50.499Z,1.26
2023-01-02T00:05:18.887Z,1.27
2023-01-02T00:07:47.145Z,1.16
2023-01-02T00:10:16.731Z,1.21
2023-01-02T00:12:44.825Z,1.23
2023-01-02T00:15:13.243Z,1.26
2023-01-02T00:17:41.447Z,1.16
2023-01-02T00:20:10.593Z,1.17
2023-01-02T00:22:38.826Z,1.08
2023-01-02T00:25:08.315Z,1.10
2023-01-02T00:27:37.909Z,1.19
2023-01-02T00:30:06.721Z,1.10
2023-01-02T00:32:34.914Z,1.14
2023-01-02T00:35:03.060Z,1.22
2023-01-02T00:37:31.160Z,1.27
2023-01-02T00:39:59.338Z,1.28
2023-01-02T00:42:27.515Z,1.22
2023-01-02T00:44:57.009Z,1.24
2023-01-02T00:47:26.372Z,1.20
2023-01-02T00:49:54.464Z,1.29
2023-01-02T00:52:22.582Z,1.28
2023-01-02T00:54:50.674Z,1.21
2023-01-02T00:57:18.786Z,1.10
2023-01-02T00:59:46.895Z,1.11
2023-01-02T01:02:16.506Z,1.03
2023-01-02T01:04:44.756Z,1.05
2023-01-02T01:07:13.164Z,1.05
2023-01-02T01:09:41.399Z,0.97
2023-01-02T01:12:09.660Z,0.99
2023-01-02T01:14:37.853Z,0.95
2023-01-02T01:17:06.058Z,0.96
2023-01-02T01:19:36.830Z,1.05
2023-01-02T01:22:04.946Z,0.88
2023-01-02T01:24:33.176Z,0.86
2023-01-02T01:27:01.405Z,0.88
2023-01-02T01:29:29.581Z,0.88
2023-01-02T01:31:57.782Z,0.92
2023-01-02T01:34:25.921Z,0.83
2023-01-02T01:36:55.454Z,0.84
2023-01-02T01:39:23.646Z,0.83
2023-01-02T01:41:51.845Z,0.90
2023-01-02T01:44:48.294Z,0.92
2023-01-02T01:47:27.386Z,0.84
2023-01-02T01:50:05.574Z,0.83
2023-01-02T01:52:39.545Z,0.84
2023-01-02T01:55:14.099Z,0.89
2023-01-02T01:57:46.219Z,0.91
2023-01-02T02:00:15.143Z,0.90
2023-01-02T02:02:46.921Z,0.91
2023-01-02T02:05:19.039Z,0.77
2023-01-02T02:07:57.387Z,0.83
2023-01-02T02:10:25.511Z,0.85
2023-01-02T02:12:53.636Z,0.73
2023-01-02T02:15:28.707Z,0.68
2023-01-02T02:18:04.319Z,0.77
2023-01-02T02:20:40.650Z,0.75
2023-01-02T02:23:40.237Z,0.56
2023-01-02T02:26:44.124Z,0.62
2023-01-02T02:30:04.423Z,0.64
2023-01-02T02:32:55.706Z,0.68
2023-01-02T02:35:36.834Z,0.56
2023-01-02T02:38:09.228Z,0.53
2023-01-02T02:40:51.561Z,0.61
2023-01-02T02:43:29.859Z,0.68
2023-01-02T02:46:09.698Z,0.55
2023-01-02T02:48:46.889Z,0.57
2023-01-02T02:51:20.031Z,0.61
2023-01-02T02:53:56.356Z,0.55
2023-01-02T02:56:28.109Z,0.42
2023-01-02T02:58:57.569Z,0.44
2023-01-02T03:01:30.813Z,0.50
2023-01-02T03:03:59.601Z,0.41
2023-01-02T03:06:45.901Z,0.31
2023-01-02T03:09:20.529Z,0.28
2023-01-02T03:11:56.320Z,0.26
2023-01-02T03:14:32.893Z,0.26
2023-01-02T03:17:05.337Z,0.28
2023-01-02T03:19:39.259Z,0.34
2023-01-02T03:22:12.580Z,0.32
2023-01-02T03:24:42.429Z,0.32
2023-01-02T03:27:14.921Z,0.31
2023-01-02T03:29:47.759Z,0.24
2023-01-02T03:32:22.818Z,0.19
2023-01-02T03:34:53.137Z,0.16
2023-01-02T03:37:27.213Z,0.26
2023-01-02T03:39:59.012Z,0.13
2023-01-02T03:42:30.185Z,0.20
2023-01-02T03:45:03.659Z,0.24
2023-01-02T03:47:40.192Z,0.22
2023-01-02T03:50:13.488Z,0.10
2023-01-02T03:52:41.824Z,0.09
2023-01-02T03:55:11.085Z,0.14
2023-01-02T03:57:57.537Z,0.09
2023-01-02T04:00:34.028Z,0.13
2023-01-02T04:03:08.855Z,0.20
2023-01-02T04:05:41.880Z,0.19
2023-01-02T04:08:14.737Z,0.21
2023-01-02T04:10:46.169Z,0.24
2023-01-02T04:13:19.096Z,0.16
2023-01-02T04:15:49.673Z,0.05
2023-01-02T04:18:23.736Z,0.11
2023-01-02T04:20:58.105Z,0.06
2023-01-02T04:23:31.359Z,-0.06
2023-01-02T04:26:05.098Z,0.02
2023-01-02T04:28:35.172Z,0.06
2023-01-02T04:31:09.542Z,0.04
2023-01-02T04:33:44.828Z,0.06
2023-01-02T04:36:16.096Z,0.03
2023-01-02T04:38:45.745Z,-0.09
2023-01-02T04:41:18.520Z,-0.04
2023-01-02T04:43:46.707Z,-0.15
2023-01-02T04:46:15.290Z,-0.19
2023-01-02T04:48:44.873Z,-0.07
2023-01-02T04:51:13.061Z,-0.14
2023-01-02T04:53:41.225Z,-0.07
2023-01-02T04:56:10.609Z,-0.12
2023-01-02T04:58:38.735Z,-0.26
2023-01-02T05:01:10.380Z,-0.22
2023-01-02T05:03:41.304Z,-0.21
2023-01-02T05:06:11.607Z,-0.23
2023-01-02T05:08:40.257Z,-0.20
2023-01-02T05:11:09.220Z,-0.25
2023-01-02T05:13:37.382Z,-0.25
2023-01-02T05:16:06.100Z,-0.38
2023-01-02T05:18:34.361Z,-0.38
2023-01-02T05:21:03.670Z,-0.24
2023-01-02T05:23:50.785Z,-0.29
2023-01-02T05:26:19.529Z,-0.23
2023-01-02T05:28:47.703Z,-0.26
2023-01-02T05:31:16.089Z,-0.34
2023-01-02T05:33:44.312Z,-0.28
2023-01-02T05:36:12.541Z,-0.22
2023-01-02T05:38:42.002Z,-0.12
2023-01-02T05:41:10.376Z,-0.20
2023-01-02T05:43:39.435Z,-0.21
2023-01-02T05:46:13.127Z,-0.23
2023-01-02T05:48:42.173Z,-0.14
2023-01-02T05:51:12.257Z,-0.14
2023-01-02T05:53:42.966Z,-0.10
2023-01-02T05:56:13.282Z,-0.08
2023-01-02T05:58:43.026Z,0.06
2023-01-02T06:01:13.850Z,0.07
2023-01-02T06:03:46.196Z,0.02
2023-01-02T06:06:15.000Z,0.18
2023-01-02T06:08:44.715Z,0.15
2023-01-02T06:11:13.335Z,-0.01
2023-01-02T06:13:41.846Z,-0.01
2023-01-02T06:16:11.730Z,0.08
2023-01-02T06:18:41.226Z,0.07
2023-01-02T06:21:12.009Z,-0.04
2023-01-02T06:23:43.066Z,-0.10
2023-01-02T06:26:14.615Z,-0.17
2023-01-02T06:28:43.526Z,-0.13
2023-01-02T06:31:13.399Z,-0.08
2023-01-02T06:33:42.074Z,-0.01
2023-01-02T06:36:14.309Z,-0.07
2023-01-02T06:38:42.920Z,-0.10
2023-01-02T06:41:13.602Z,-0.05
2023-01-02T06:43:44.191Z,-0.06
2023-01-02T06:46:13.550Z,-0.16
2023-01-02T06:48:42.150Z,-0.10
2023-01-02T06:51:13.022Z,-0.08
2023-01-02T06:53:43.040Z,-0.18
2023-01-02T06:56:14.330Z,-0.23
2023-01-02T06:58:42.553Z,-0.15
2023-01-02T07:01:12.875Z,-0.11
2023-01-02T07:03:41.103Z,-0.07
2023-01-02T07:06:11.343Z,-0.09
2023-01-02T07:08:39.805Z,0.09
2023-01-02T07:11:14.907Z,0.27
2023-01-02T07:13:44.387Z,0.21
2023-01-02T07:16:14.593Z,0.47
2023-01-02T07:18:43.042Z,0.63
2023-01-02T07:21:12.445Z,0.58
2023-01-02T07:23:41.605Z,0.69
2023-01-02T07:26:09.971Z,0.83
2023-01-02T07:28:39.715Z,0.77
2023-01-02T07:31:10.225Z,0.88
2023-01-02T07:33:38.757Z,1.01
2023-01-02T07:36:09.351Z,1.13
2023-01-02T07:38:39.241Z,1.22
2023-01-02T07:41:15.616Z,1.30
2023-01-02T07:43:46.918Z,1.18
2023-01-02T07:46:16.309Z,1.07
2023-01-02T07:48:44.999Z,1.24
2023-01-02T07:51:13.676Z,1.31
2023-01-02T07:53:42.542Z,1.34
2023-01-02T07:56:11.460Z,1.39
2023-01-02T07:58:39.644Z,1.51
2023-01-02T08:01:11.146Z,1.62
2023-01-02T08:03:40.743Z,1.79
2023-01-02T08:06:10.966Z,1.87
2023-01-02T08:08:40.546Z,1.99
2023-01-02T08:11:09.469Z,1.90
2023-01-02T08:13:37.731Z,2.21
2023-01-02T08:16:09.912Z,2.12
2023-01-02T08:18:38.842Z,2.24
2023-01-02T08:21:07.591Z,2.46
2023-01-02T08:23:36.634Z,2.42
2023-01-02T08:26:06.280Z,2.70
2023-01-02T08:28:35.398Z,2.82
2023-01-02T08:31:03.540Z,2.92
2023-01-02T08:33:34.175Z,3.17
2023-01-02T08:36:02.316Z,3.35
2023-01-02T08:38:30.489Z,3.39
2023-01-02T08:40:59.262Z,3.47
2023-01-02T08:43:27.601Z,3.71
2023-01-02T08:45:56.108Z,3.96
2023-01-02T08:48:24.272Z,4.00
2023-01-02T08:50:53.919Z,4.38
2023-01-02T08:53:22.137Z,4.52
2023-01-02T08:55:50.256Z,4.79
2023-01-02T08:58:18.377Z,4.92
2023-01-02T09:00:46.519Z,5.03
2023-01-02T09:03:14.761Z,4.97
2023-01-02T09:05:42.878Z,5.00
2023-01-02T09:08:15.765Z,5.39
2023-01-02T09:10:44.043Z,5.77
2023-01-02T09:13:27.740Z,6.03
2023-01-02T09:15:56.515Z,6.04
2023-01-02T09:18:29.362Z,6.24
2023-01-02T09:35:11.477Z,7.84
2023-01-02T09:37:39.591Z,7.82
2023-01-02T09:40:08.838Z,8.01
2023-01-02T09:42:37.051Z,8.17
2023-01-02T09:45:09.195Z,8.28
2023-01-02T09:47:40.573Z,8.42
2023-01-02T09:50:14.938Z,8.54
2023-01-02T09:52:45.793Z,8.77
2023-01-02T09:55:19.773Z,9.09
2023-01-02T09:57:57.656Z,9.32
2023-01-02T10:00:32.855Z,9.82
2023-01-02T10:03:13.106Z,9.87
2023-01-02T10:06:14.825Z,10.13
2023-01-02T10:08:56.400Z,10.38
2023-01-02T10:11:41.581Z,10.72
2023-01-02T10:14:19.982Z,11.23
2023-01-02T10:16:52.017Z,11.53
2023-01-02T10:19:28.853Z,11.76
2023-01-02T10:22:00.301Z,11.99
2023-01-02T10:24:41.211Z,12.32
2023-01-02T10:27:16.098Z,12.49
2023-01-02T10:29:49.609Z,12.69
2023-01-02T10:32:20.050Z,12.85
2023-01-02T10:34:59.982Z,12.96
2023-01-02T10:37:28.820Z,13.14
2023-01-02T10:39:59.235Z,13.30
2023-01-02T10:42:27.896Z,13.41
2023-01-02T10:44:55.994Z,13.50
2023-01-02T10:47:34.146Z,13.46
2023-01-02T10:50:04.510Z,13.45
2023-01-02T10:52:35.077Z,13.56
2023-01-02T10:55:04.888Z,13.81
2023-01-02T10:57:41.767Z,13.92
2023-01-02T11:00:28.799Z,14.17
2023-01-02T11:02:58.921Z,14.17
2023-01-02T11:05:29.658Z,14.13
2023-01-02T11:07:59.121Z,14.20
2023-01-02T11:10:30.992Z,14.52
2023-01-02T11:13:03.558Z,14.70
2023-01-02T11:15:34.725Z,14.92
2023-01-02T11:18:12.198Z,15.08
2023-01-02T11:20:40.797Z,15.26
2023-01-02T11:23:15.043Z,15.02
2023-01-02T11:25:45.209Z,15.55
2023-01-02T11:28:18.643Z,15.43
2023-01-02T11:30:48.693Z,15.68
2023-01-02T11:33:28.256Z,15.64
2023-01-02T11:35:57.709Z,15.73
2023-01-02T11:38:30.618Z,15.77
2023-01-02T11:41:03.252Z,16.13
2023-01-02T11:43:48.755Z,16.40
2023-01-02T11:46:29.365Z,16.27
2023-01-02T11:49:03.379Z,16.28
2023-01-02T11:51:34.667Z,16.28
2023-01-02T11:54:06.249Z,16.43
2023-01-02T11:56:38.629Z,16.48
2023-01-02T11:59:13.949Z,16.26
2023-01-02T12:01:52.988Z,16.25
2023-01-02T12:04:22.736Z,16.71
2023-01-02T12:07:03.276Z,16.95
2023-01-02T12:09:44.047Z,17.13
2023-01-02T12:12:37.401Z,17.14
2023-01-02T12:15:50.398Z,16.86
2023-01-02T12:18:33.067Z,16.81
2023-01-02T12:21:11.437Z,16.64
2023-01-02T12:23:58.124Z,17.10
2023-01-02T12:26:33.189Z,17.25
2023-01-02T12:29:47.262Z,17.13
2023-01-02T12:32:46.477Z,17.15
2023-01-02T12:35:40.130Z,16.95
2023-01-02T12:38:09.482Z,17.46
2023-01-02T12:40:48.524Z,17.40
2023-01-02T12:43:37.410Z,17.05
2023-01-02T12:46:20.959Z,17.07
2023-01-02T12:49:13.069Z,17.01
2023-01-02T12:51:50.681Z,17.01
2023-01-02T12:54:55.611Z,17.31
2023-01-02T12:57:32.446Z,17.60
2023-01-02T13:00:42.177Z,17.58
2023-01-02T13:03:41.102Z,17.20
2023-01-02T13:06:45.515Z,17.58
2023-01-02T13:09:06.910Z,17.37
2023-01-02T13:11:42.353Z,17.29
2023-01-02T13:14:16.710Z,17.68
2023-01-02T13:16:50.863Z,17.95
2023-01-02T13:19:30.974Z,17.06
2023-01-02T13:22:09.817Z,17.41
2023-01-02T13:24:38.248Z,17.35
2023-01-02T13:27:06.865Z,17.40
2023-01-02T13:29:43.295Z,17.18
2023-01-02T13:32:13.241Z,16.87
2023-01-02T13:34:51.844Z,17.03
2023-01-02T13:37:22.904Z,17.02
2023-01-02T13:39:54.657Z,16.98
2023-01-02T13:42:43.859Z,16.85
2023-01-02T13:45:15.954Z,15.97
2023-01-02T13:47:50.388Z,16.56
2023-01-02T13:50:27.361Z,17.03
2023-01-02T13:53:02.672Z,16.74
2023-01-02T13:55:33.517Z,16.39
2023-01-02T13:58:35.282Z,16.61
2023-01-02T14:01:28.181Z,16.10
2023-01-02T14:04:29.640Z,15.68
2023-01-02T14:07:39.701Z,15.19
2023-01-02T14:10:29.883Z,15.04
2023-01-02T14:13:04.219Z,14.88
2023-01-02T14:15:37.088Z,15.18
2023-01-02T14:18:07.163Z,15.11
2023-01-02T14:20:38.628Z,14.50
2023-01-02T14:23:10.504Z,14.14
2023-01-02T14:25:47.349Z,13.93
2023-01-02T14:28:24.411Z,13.78
2023-01-02T14:30:52.687Z,13.49
2023-01-02T14:33:28.979Z,13.06
2023-01-02T14:36:01.127Z,12.57
2023-01-02T14:38:37.112Z,12.18
2023-01-02T14:41:19.256Z,11.79
2023-01-02T14:43:48.745Z,11.67
2023-01-02T14:46:20.691Z,11.28
2023-01-02T14:48:56.032Z,11.20
2023-01-02T14:51:33.426Z,11.07
2023-01-02T14:54:13.095Z,10.77
2023-01-02T14:56:45.562Z,10.60
2023-01-02T14:59:18.881Z,10.26
2023-01-02T15:01:50.890Z,10.11
2023-01-02T15:04:24.249Z,9.88
2023-01-02T15:07:10.017Z,9.63
2023-01-02T15:09:45.252Z,9.36
2023-01-02T15:12:40.957Z,9.24
2023-01-02T15:15:12.669Z,8.99
2023-01-02T15:17:41.992Z,8.85
2023-01-02T15:20:18.368Z,8.63
2023-01-02T15:22:47.466Z,8.44
2023-01-02T15:25:31.984Z,8.31
2023-01-02T15:28:00.283Z,8.24
2023-01-02T15:30:30.383Z,8.07
2023-01-02T15:32:58.641Z,7.87
2023-01-02T15:35:31.092Z,7.80
2023-01-02T15:37:59.395Z,7.69
2023-01-02T15:40:32.173Z,7.62
2023-01-02T15:43:21.813Z,7.54
2023-01-02T15:45:52.599Z,7.40
2023-01-02T15:48:23.030Z,7.24
2023-01-02T15:50:54.577Z,7.13
2023-01-02T15:53:28.383Z,6.96
2023-01-02T15:55:59.628Z,6.84
2023-01-02T15:58:30.177Z,6.68
2023-01-02T16:01:16.449Z,6.59
2023-01-02T16:04:02.920Z,6.48
2023-01-02T16:06:34.892Z,6.42
2023-01-02T16:09:05.486Z,6.33
2023-01-02T16:11:44.803Z,6.25
2023-01-02T16:14:21.212Z,6.21
2023-01-02T16:16:54.917Z,6.15
2023-01-02T16:19:28.314Z,6.06
2023-01-02T16:22:05.542Z,5.96
2023-01-02T16:24:35.924Z,5.81
2023-01-02T16:27:07.024Z,5.76
2023-01-02T16:29:35.194Z,5.75
2023-01-02T16:32:03.449Z,5.73
2023-01-02T16:34:35.842Z,5.60
2023-01-02T16:37:12.590Z,5.58
2023-01-02T16:39:50.197Z,5.58
2023-01-02T16:42:36.698Z,5.41
2023-01-02T16:45:07.342Z,5.37
2023-01-02T16:47:42.118Z,5.40
2023-01-02T16:50:18.367Z,5.38
2023-01-02T16:52:47.008Z,5.25
2023-01-02T16:55:17.333Z,5.15
2023-01-02T16:57:47.190Z,5.15
2023-01-02T17:00:16.512Z,5.12
2023-01-02T17:02:44.996Z,5.03
2023-01-02T17:05:19.077Z,5.05
2023-01-02T17:07:47.561Z,4.84
2023-01-02T17:10:16.084Z,4.90
2023-01-02T17:12:44.297Z,4.85
2023-01-02T17:15:16.053Z,4.84
2023-01-02T17:17:44.497Z,4.75
2023-01-02T17:20:14.121Z,4.72
2023-01-02T17:22:43.355Z,4.67
2023-01-02T17:25:15.162Z,4.55
2023-01-02T17:27:43.878Z,4.51
2023-01-02T17:30:15.480Z,4.43
2023-01-02T17:32:45.052Z,4.45
2023-01-02T17:35:17.679Z,4.45
2023-01-02T17:37:54.288Z,4.39
2023-01-02T17:40:22.502Z,4.40
2023-01-02T17:42:50.721Z,4.38
2023-01-02T17:45:20.709Z,4.40
2023-01-02T17:48:01.121Z,4.25
2023-01-02T17:50:33.123Z,4.22
2023-01-02T17:53:01.306Z,4.23
2023-01-02T17:55:29.503Z,4.14
2023-01-02T17:58:00.586Z,4.18
2023-01-02T18:00:30.325Z,4.14
2023-01-02T18:02:58.682Z,4.15
2023-01-02T18:05:27.025Z,4.08
2023-01-02T18:07:55.319Z,4.05
2023-01-02T18:10:29.165Z,3.93
2023-01-02T18:13:01.479Z,3.81
2023-01-02T18:15:31.501Z,3.85
2023-01-02T18:18:07.623Z,3.84
2023-01-02T18:20:36.171Z,3.84
2023-01-02T18:23:13.023Z,3.75
2023-01-02T18:25:44.370Z,3.69
2023-01-02T18:28:26.563Z,3.67
2023-01-02T18:31:03.376Z,3.61
2023-01-02T18:33:34.623Z,3.60
2023-01-02T18:36:04.252Z,3.57
2023-01-02T18:38:35.627Z,3.54
2023-01-02T18:41:15.425Z,3.50
2023-01-02T18:43:46.017Z,3.50
2023-01-02T18:46:18.891Z,3.49
2023-01-02T18:48:48.472Z,3.48
2023-01-02T18:51:19.628Z,3.44
2023-01-02T18:53:51.346Z,3.37
2023-01-02T18:56:25.791Z,3.33
2023-01-02T18:59:02.480Z,3.27
2023-01-02T19:01:36.429Z,3.26
2023-01-02T19:04:27.868Z,3.26
2023-01-02T19:06:58.937Z,3.16
2023-01-02T19:09:30.858Z,3.12
2023-01-02T19:12:20.663Z,3.13
2023-01-02T19:14:50.672Z,3.12
2023-01-02T19:17:26.037Z,3.11
2023-01-02T19:19:56.804Z,3.19
2023-01-02T19:22:32.137Z,3.52
2023-01-02T19:25:10.181Z,3.75
2023-01-02T19:27:39.729Z,3.92
2023-01-02T19:30:24.177Z,4.03
2023-01-02T19:32:56.981Z,3.95
2023-01-02T19:35:54.673Z,4.10
2023-01-02T19:38:28.757Z,4.87
2023-01-02T19:40:58.746Z,5.80
2023-01-02T19:43:28.047Z,6.74
2023-01-02T19:45:57.947Z,7.28
2023-01-02T19:48:28.012Z,7.89
2023-01-02T19:50:57.052Z,8.17
2023-01-02T19:53:25.267Z,8.45
2023-01-02T19:55:54.523Z,8.56
2023-01-02T19:58:24.985Z,8.33
2023-01-02T20:00:53.845Z,7.71
2023-01-02T20:03:23.195Z,7.33
2023-01-02T20:05:56.712Z,7.57
2023-01-02T20:08:25.508Z,7.77
2023-01-02T20:10:54.517Z,8.35
2023-01-02T20:13:23.354Z,8.10
2023-01-02T20:15:51.934Z,7.12
2023-01-02T20:18:22.037Z,7.37
2023-01-02T20:20:50.253Z,7.45
2023-01-02T20:23:21.148Z,7.63
2023-01-02T20:25:49.749Z,8.24
2023-01-02T20:28:18.424Z,8.42
2023-01-02T20:30:48.551Z,8.30
2023-01-02T20:33:18.603Z,7.99
2023-01-02T20:35:48.672Z,8.16
2023-01-02T20:38:18.406Z,8.31
2023-01-02T20:40:52.678Z,8.21
2023-01-02T20:43:22.346Z,8.62
2023-01-02T20:45:51.056Z,7.70
2023-01-02T20:48:21.440Z,7.15
2023-01-02T20:50:51.796Z,7.20
2023-01-02T20:53:21.255Z,6.31
2023-01-02T20:55:52.510Z,5.81
2023-01-02T20:58:23.011Z,5.50
2023-01-02T21:00:52.102Z,5.34
2023-01-02T21:03:21.288Z,5.00
2023-01-02T21:05:50.263Z,4.97
2023-01-02T21:08:19.596Z,4.97
2023-01-02T21:10:49.172Z,4.87
2023-01-02T21:13:23.743Z,4.81
2023-01-02T21:15:53.226Z,4.75
2023-01-02T21:18:24.201Z,4.70
2023-01-02T21:20:53.717Z,4.74
2023-01-02T21:23:24.376Z,4.79
2023-01-02T21:25:54.337Z,4.63
2023-01-02T21:28:26.027Z,4.51
2023-01-02T21:30:54.829Z,4.46
2023-01-02T21:33:24.792Z,4.42
2023-01-02T21:35:54.451Z,4.48
2023-01-02T21:38:24.054Z,4.35
2023-01-02T21:40:53.104Z,4.26
2023-01-02T21:43:21.550Z,4.17
2023-01-02T21:45:51.326Z,4.14
2023-01-02T21:48:19.606Z,4.06
2023-01-02T21:50:47.932Z,4.04
2023-01-02T21:53:16.943Z,3.95
2023-01-02T21:55:45.327Z,3.94
2023-01-02T21:58:14.339Z,3.95
2023-01-02T22:00:43.530Z,3.84
2023-01-02T22:03:13.583Z,3.78
2023-01-02T22:05:41.996Z,3.69
2023-01-02T22:08:10.263Z,3.63
2023-01-02T22:10:39.446Z,3.38
2023-01-02T22:13:07.621Z,3.41
2023-01-02T22:15:35.821Z,3.37
2023-01-02T22:18:04.081Z,3.36
2023-01-02T22:20:33.697Z,3.26
2023-01-02T22:23:01.968Z,3.20
2023-01-02T22:25:30.274Z,3.15
2023-01-02T22:27:58.576Z,3.09
2023-01-02T22:30:33.921Z,3.01
2023-01-02T22:33:03.399Z,2.92
2023-01-02T22:35:31.603Z,2.88
2023-01-02T22:38:01.398Z,2.84
2023-01-02T22:40:30.134Z,2.81
2023-01-02T22:43:01.714Z,2.69
2023-01-02T22:45:34.822Z,2.60
2023-01-02T22:48:07.119Z,2.60
2023-01-02T22:50:43.620Z,2.52
2023-01-02T22:53:19.848Z,2.48
2023-01-02T22:55:48.620Z,2.35
2023-01-02T22:58:17.092Z,2.28
2023-01-02T23:00:46.555Z,2.27
2023-01-02T23:03:16.679Z,2.19
2023-01-02T23:05:45.366Z,2.20
2023-01-02T23:08:15.953Z,2.16
2023-01-02T23:10:44.181Z,2.18
2023-01-02T23:13:12.424Z,2.12
2023-01-02T23:16:00.935Z,2.07
2023-01-02T23:18:49.134Z,2.12
2023-01-02T23:21:23.302Z,2.06
2023-01-02T23:23:53.914Z,2.04
2023-01-02T23:26:24.154Z,2.03
2023-01-02T23:29:06.490Z,1.97
2023-01-02T23:31:36.666Z,1.92
2023-01-02T23:34:05.138Z,1.82
2023-01-02T23:36:33.688Z,1.84
2023-01-02T23:39:04.050Z,1.72
2023-01-02T23:41:32.294Z,1.74
2023-01-02T23:44:00.475Z,1.71
2023-01-02T23:46:28.742Z,1.70
2023-01-02T23:48:57.008Z,1.75
2023-01-02T23:51:25.361Z,1.78
2023-01-02T23:53:53.532Z,1.70
2023-01-02T23:56:25.243Z,1.77
2023-01-02T23:58:56.460Z,1.71
